North River — WYR2549 — position and weather

sailwx.info

Track history (hours):
 
Tides and Currents Weather Stations Pressure Air Temp Water Temp Dewpoint Dewpoint Depression Visibility Wind Speed Wind Dir Waves Ship Positions

North River

Owner: CITY OF NEW YORK, Brooklyn, NY. More information available from US FCC via Universal Licensing System and Coast Guard Vessel Documentation Center.

Last reported at 2017-Nov-22 21:15 UTC. Time now 2017-Nov-23 00:21 UTC.
Position N 40°47' W 073°54'.

Length 78 m.

Type: Tanker. MMSI: 367074110.

Date/timePositionNaut miles runAvg speedWind from/ knotsBaromVisibWave heightAir tempDewpointWater temp
2017-Nov-22 21:15N 40°47' W 073°54'0 0.8
2017-Nov-22 21:00N 40°47' W 073°54'3 5.5
2017-Nov-22 20:30N 40°46' W 073°57'3 6.6
2017-Nov-22 20:00N 40°43' W 073°58'5 9.7
2017-Nov-22 19:30N 40°40' W 074°03'  
2017-Nov-17 21:53N 40°47' W 073°53'3 7.2
2017-Nov-17 21:30N 40°46' W 073°57'713.4
2017-Nov-17 21:00N 40°41' W 074°02'510.0
2017-Nov-17 20:30N 40°39' W 074°08'0 0.1
2017-Nov-17 20:00N 40°38' W 074°08'0 0.0
2017-Nov-17 19:30N 40°38' W 074°08'0 0.0
2017-Nov-17 19:00N 40°38' W 074°08'0 0.0
2017-Nov-17 18:30N 40°38' W 074°08'0 0.7
2017-Nov-17 18:00N 40°39' W 074°07'510.8
2017-Nov-17 17:31N 40°42' W 074°02'713.6
2017-Nov-17 17:00N 40°49' W 073°58'1 2.2
2017-Nov-17 16:30N 40°50' W 073°58'0 0.0
2017-Nov-17 16:00N 40°50' W 073°58'0 0.0
2017-Nov-17 15:27N 40°50' W 073°58'0 0.3
2017-Nov-17 15:00N 40°49' W 073°58'612.6
2017-Nov-17 14:31N 40°44' W 074°01'3 5.5
2017-Nov-17 14:00N 40°45' W 073°58'4 7.8
2017-Nov-17 13:26N 40°48' W 073°54'1 2.3
2017-Nov-17 13:00N 40°47' W 073°54'0 0.0
2017-Nov-17 12:30N 40°47' W 073°54'0 0.0
2017-Nov-15 21:42N 40°47' W 073°53'2 6.8
2017-Nov-15 21:26N 40°47' W 073°56'613.8
2017-Nov-15 21:00N 40°42' W 074°00'611.6
2017-Nov-15 20:30N 40°39' W 074°07'1 1.5
2017-Nov-15 20:00N 40°38' W 074°08'0 0.0
2017-Nov-15 19:30N 40°38' W 074°08'0 0.0
2017-Nov-15 19:00N 40°38' W 074°08'0 0.0
2017-Nov-15 18:30N 40°38' W 074°08'0 0.1
2017-Nov-15 18:00N 40°39' W 074°08'3 5.7
2017-Nov-15 17:30N 40°39' W 074°04'713.3
2017-Nov-15 17:00N 40°45' W 074°01'5 8.9
2017-Nov-15 16:27N 40°49' W 073°58'0 0.0
2017-Nov-15 16:00N 40°49' W 073°58'0 0.0
2017-Nov-15 15:30N 40°49' W 073°58'0 0.0
2017-Nov-15 15:00N 40°49' W 073°58'1 2.6
2017-Nov-15 14:30N 40°48' W 073°58'612.6
2017-Nov-15 14:00N 40°43' W 074°01'611.1
2017-Nov-15 13:30N 40°47' W 073°56'2 4.2
2017-Nov-15 12:59N 40°47' W 073°54'0 0.0
2017-Nov-15 12:30N 40°47' W 073°54'0 0.0
2017-Nov-14 18:32N 40°47' W 073°54'0 0.0
2017-Nov-14 18:30N 40°47' W 073°54'0 0.0
2017-Nov-14 18:00N 40°47' W 073°54'0 0.0
2017-Nov-14 17:30N 40°47' W 073°54'0 0.0
2017-Nov-14 17:00N 40°47' W 073°54'0 0.0
2017-Nov-14 16:30N 40°47' W 073°54'0 0.0
2017-Nov-14 16:00N 40°47' W 073°54'0 0.0
2017-Nov-14 15:30N 40°47' W 073°54'0 0.0
2017-Nov-14 15:00N 40°47' W 073°54'0 0.0
2017-Nov-14 14:29N 40°47' W 073°54'0 0.0
2017-Nov-14 14:00N 40°47' W 073°54'0 0.0
2017-Nov-14 13:30N 40°47' W 073°54'0 0.0
2017-Nov-14 13:00N 40°47' W 073°54'  
Track history (hours):
 
Tides and Currents Weather Stations Pressure Air Temp Water Temp Dewpoint Dewpoint Depression Visibility Wind Speed Wind Dir Waves Ship Positions

North River

Owner: CITY OF NEW YORK, Brooklyn, NY. More information available from US FCC via Universal Licensing System and Coast Guard Vessel Documentation Center.

Last reported at 2017-Nov-22 21:15 UTC. Time now 2017-Nov-23 00:21 UTC.
Position N 40°47' W 073°54'.

Length 78 m.

Type: Tanker. MMSI: 367074110.

Date/timePositionNaut miles runAvg speedWind from/ knotsBaromVisibWave heightAir tempDewpointWater temp
2017-Nov-22 21:15N 40°47' W 073°54'0 0.8
2017-Nov-22 21:00N 40°47' W 073°54'3 5.5
2017-Nov-22 20:30N 40°46' W 073°57'3 6.6
2017-Nov-22 20:00N 40°43' W 073°58'5 9.7
2017-Nov-22 19:30N 40°40' W 074°03'  
2017-Nov-17 21:53N 40°47' W 073°53'3 7.2
2017-Nov-17 21:30N 40°46' W 073°57'713.4
2017-Nov-17 21:00N 40°41' W 074°02'510.0
2017-Nov-17 20:30N 40°39' W 074°08'0 0.1
2017-Nov-17 20:00N 40°38' W 074°08'0 0.0
2017-Nov-17 19:30N 40°38' W 074°08'0 0.0
2017-Nov-17 19:00N 40°38' W 074°08'0 0.0
2017-Nov-17 18:30N 40°38' W 074°08'0 0.7
2017-Nov-17 18:00N 40°39' W 074°07'510.8
2017-Nov-17 17:31N 40°42' W 074°02'713.6
2017-Nov-17 17:00N 40°49' W 073°58'1 2.2
2017-Nov-17 16:30N 40°50' W 073°58'0 0.0
2017-Nov-17 16:00N 40°50' W 073°58'0 0.0
2017-Nov-17 15:27N 40°50' W 073°58'0 0.3
2017-Nov-17 15:00N 40°49' W 073°58'612.6
2017-Nov-17 14:31N 40°44' W 074°01'3 5.5
2017-Nov-17 14:00N 40°45' W 073°58'4 7.8
2017-Nov-17 13:26N 40°48' W 073°54'1 2.3
2017-Nov-17 13:00N 40°47' W 073°54'0 0.0
2017-Nov-17 12:30N 40°47' W 073°54'0 0.0
2017-Nov-15 21:42N 40°47' W 073°53'2 6.8
2017-Nov-15 21:26N 40°47' W 073°56'613.8
2017-Nov-15 21:00N 40°42' W 074°00'611.6
2017-Nov-15 20:30N 40°39' W 074°07'1 1.5
2017-Nov-15 20:00N 40°38' W 074°08'0 0.0
2017-Nov-15 19:30N 40°38' W 074°08'0 0.0
2017-Nov-15 19:00N 40°38' W 074°08'0 0.0
2017-Nov-15 18:30N 40°38' W 074°08'0 0.1
2017-Nov-15 18:00N 40°39' W 074°08'3 5.7
2017-Nov-15 17:30N 40°39' W 074°04'713.3
2017-Nov-15 17:00N 40°45' W 074°01'5 8.9
2017-Nov-15 16:27N 40°49' W 073°58'0 0.0
2017-Nov-15 16:00N 40°49' W 073°58'0 0.0
2017-Nov-15 15:30N 40°49' W 073°58'0 0.0
2017-Nov-15 15:00N 40°49' W 073°58'1 2.6
2017-Nov-15 14:30N 40°48' W 073°58'612.6
2017-Nov-15 14:00N 40°43' W 074°01'611.1
2017-Nov-15 13:30N 40°47' W 073°56'2 4.2
2017-Nov-15 12:59N 40°47' W 073°54'0 0.0
2017-Nov-15 12:30N 40°47' W 073°54'0 0.0
2017-Nov-14 18:32N 40°47' W 073°54'0 0.0
2017-Nov-14 18:30N 40°47' W 073°54'0 0.0
2017-Nov-14 18:00N 40°47' W 073°54'0 0.0
2017-Nov-14 17:30N 40°47' W 073°54'0 0.0
2017-Nov-14 17:00N 40°47' W 073°54'0 0.0
2017-Nov-14 16:30N 40°47' W 073°54'0 0.0
2017-Nov-14 16:00N 40°47' W 073°54'0 0.0
2017-Nov-14 15:30N 40°47' W 073°54'0 0.0
2017-Nov-14 15:00N 40°47' W 073°54'0 0.0
2017-Nov-14 14:29N 40°47' W 073°54'0 0.0
2017-Nov-14 14:00N 40°47' W 073°54'0 0.0
2017-Nov-14 13:30N 40°47' W 073°54'0 0.0
2017-Nov-14 13:00N 40°47' W 073°54'  

Dump ship's entire track history